Time;durP1;ratioP1;P1;durP2;ratioP2;P2;SDS_P1;SDS_P2;PMS_P1;PMS_P2;Temp;Humidity;BMP_temperature;BMP_pressure;BME280_temperature;BME280_humidity;BME280_pressure;Samples;Min_cycle;Max_cycle;Signal;HPM_P1;HPM_P2
2021/09/17 00:00:29;;;;;;;;;;;;;;;13.93;77.16;99840.97;4992523;28;1057;-67
2021/09/17 00:02:56;;;;;;;;;;;;;;;13.91;77.48;99842.63;4992535;28;893;-67
2021/09/17 00:05:23;;;;;;;;;;;;;;;13.92;78.06;99842.19;4992542;28;803;-67
2021/09/17 00:07:49;;;;;;;;;;;;;;;13.92;78.07;99831.09;4992398;28;830;-67
2021/09/17 00:10:16;;;;;;;;;;;;;;;13.88;78.28;99831.13;4992582;28;1894;-67
2021/09/17 00:12:43;;;;;;;;;;;;;;;13.86;78.67;99832.78;4992244;28;1001;-67
2021/09/17 00:15:11;;;;;;;;;;;;;;;13.86;78.96;99821.66;4992389;28;815;-67
2021/09/17 00:17:38;;;;;;;;;;;;;;;13.82;78.86;99827.28;5001807;28;1352;-67
2021/09/17 00:20:05;;;;;;;;;;;;;;;13.77;79.05;99827.78;5011853;28;854;-67
2021/09/17 00:22:32;;;;;;;;;;;;;;;13.77;79.44;99824.22;5011803;28;889;-67
2021/09/17 00:24:59;;;;;;;;;;;;;;;13.77;79.78;99822.22;5011800;28;819;-67
2021/09/17 00:27:26;;;;;;;;;;;;;;;13.78;80.24;99826.56;5011632;28;818;-67
2021/09/17 00:29:52;;;;;;;;;;;;;;;13.80;80.79;99817.81;5011702;28;1977;-68
2021/09/17 00:32:18;;;;;;;;;;;;;;;13.81;80.80;99819.38;4994253;28;1434;-68
2021/09/17 00:34:44;;;;;;;;;;;;;;;13.83;80.92;99820.53;5011655;28;898;-68
2021/09/17 00:37:11;;;;;;;;;;;;;;;13.85;81.06;99823.66;5011661;28;880;-68
2021/09/17 00:39:38;;;;;;;;;;;;;;;13.85;81.00;99812.56;5011756;28;878;-68
2021/09/17 00:42:04;;;;;;;;;;;;;;;13.86;81.18;99814.09;5011663;28;843;-68
2021/09/17 00:44:31;;;;;;;;;;;;;;;13.84;80.87;99801.84;5011783;28;815;-68
2021/09/17 00:46:58;;;;;;;;;;;;;;;13.83;80.97;99816.97;5011678;28;823;-68
2021/09/17 00:49:25;;;;;;;;;;;;;;;13.85;80.90;99814.56;5011745;28;1949;-68
2021/09/17 00:51:52;;;;;;;;;;;;;;;13.79;81.01;99808.69;5011673;28;870;-68
2021/09/17 00:54:19;;;;;;;;;;;;;;;13.81;81.22;99811.84;5011685;28;874;-68
2021/09/17 00:56:46;;;;;;;;;;;;;;;13.91;81.31;99806.50;5011481;28;803;-68
2021/09/17 00:59:13;;;;;;;;;;;;;;;14.01;80.97;99802.75;4993986;28;1181;-68
2021/09/17 01:01:40;;;;;;;;;;;;;;;14.08;80.75;99799.81;5011647;28;815;-68
2021/09/17 01:04:07;;;;;;;;;;;;;;;14.10;80.59;99800.16;5011762;28;823;-68
2021/09/17 01:06:37;;;;;;;;;;;;;;;14.05;80.45;99798.69;5011796;28;877;-68
2021/09/17 01:09:05;;;;;;;;;;;;;;;14.02;80.57;99796.75;5011394;28;808;-68
2021/09/17 01:11:32;;;;;;;;;;;;;;;14.06;80.53;99794.69;4993683;28;1886;-68
2021/09/17 01:14:00;;;;;;;;;;;;;;;14.07;80.51;99785.13;5011357;28;853;-68
2021/09/17 01:16:28;;;;;;;;;;;;;;;14.05;80.64;99790.34;5011648;28;1052;-68
2021/09/17 01:18:54;;;;;;;;;;;;;;;14.00;80.67;99787.28;4974255;28;1322;-68
2021/09/17 01:21:21;;;;;;;;;;;;;;;13.91;80.88;99782.25;4991734;28;871;-68
2021/09/17 01:23:48;;;;;;;;;;;;;;;13.86;81.15;99783.56;4992370;28;808;-68
2021/09/17 01:26:15;;;;;;;;;;;;;;;13.80;80.98;99785.25;4995154;28;925;-68
2021/09/17 01:28:42;;;;;;;;;;;;;;;13.72;81.28;99774.69;4995224;28;819;-68
2021/09/17 01:31:09;;;;;;;;;;;;;;;13.61;81.26;99774.88;4995089;28;1914;-68
2021/09/17 01:33:36;;;;;;;;;;;;;;;13.44;81.33;99774.00;4995113;28;836;-68
2021/09/17 01:36:07;;;;;;;;;;;;;;;13.28;81.44;99764.34;4977583;28;1193;-68
2021/09/17 01:38:35;;;;;;;;;;;;;;;13.22;82.06;99759.66;4995058;28;909;-68
2021/09/17 01:41:02;;;;;;;;;;;;;;;13.16;82.05;99764.91;4994958;28;890;-68
2021/09/17 01:43:29;;;;;;;;;;;;;;;13.10;82.35;99766.59;4994925;28;827;-68
2021/09/17 01:45:56;;;;;;;;;;;;;;;13.06;82.42;99763.09;4994944;28;882;-68
2021/09/17 01:48:25;;;;;;;;;;;;;;;13.11;82.55;99764.59;4994907;28;798;-68
2021/09/17 01:50:51;;;;;;;;;;;;;;;13.20;83.07;99756.53;4994847;28;1961;-68
2021/09/17 01:53:18;;;;;;;;;;;;;;;13.30;83.08;99763.91;4994970;28;823;-68
2021/09/17 01:55:45;;;;;;;;;;;;;;;13.36;82.97;99762.25;4994642;28;886;-68
2021/09/17 01:58:12;;;;;;;;;;;;;;;13.37;82.97;99766.56;4994753;28;877;-67
2021/09/17 02:00:40;;;;;;;;;;;;;;;13.36;82.87;99753.91;4994630;28;886;-68
2021/09/17 02:03:07;;;;;;;;;;;;;;;13.33;83.20;99753.97;4994647;28;834;-68
2021/09/17 02:05:34;;;;;;;;;;;;;;;13.27;83.13;99743.31;4994507;28;847;-68
2021/09/17 02:08:01;;;;;;;;;;;;;;;13.23;83.12;99736.25;4994510;28;863;-68
2021/09/17 02:10:28;;;;;;;;;;;;;;;13.10;83.17;99735.28;4994376;28;1890;-68
2021/09/17 02:12:54;;;;;;;;;;;;;;;13.04;83.55;99732.22;4994747;28;815;-68
2021/09/17 02:15:21;;;;;;;;;;;;;;;13.04;83.45;99735.75;4994392;28;867;-68
2021/09/17 02:17:47;;;;;;;;;;;;;;;13.07;83.74;99739.69;5004819;28;1214;-68
2021/09/17 02:20:14;;;;;;;;;;;;;;;13.16;83.85;99733.59;5013806;28;787;-68
2021/09/17 02:22:40;;;;;;;;;;;;;;;13.28;84.35;99733.81;5014200;28;867;-68
2021/09/17 02:25:07;;;;;;;;;;;;;;;13.41;84.16;99730.44;5013681;28;796;-68
2021/09/17 02:27:34;;;;;;;;;;;;;;;13.47;83.89;99735.06;5013739;28;894;-67
2021/09/17 02:30:00;;;;;;;;;;;;;;;13.50;84.06;99736.19;5013483;28;1979;-68
2021/09/17 02:32:27;;;;;;;;;;;;;;;13.54;83.74;99733.38;5013562;28;867;-68
2021/09/17 02:34:54;;;;;;;;;;;;;;;13.57;84.07;99735.28;5013186;28;807;-68
2021/09/17 02:37:20;;;;;;;;;;;;;;;13.57;84.00;99736.09;5012908;28;1066;-68
2021/09/17 02:39:47;;;;;;;;;;;;;;;13.55;84.16;99732.97;5013504;28;870;-68
2021/09/17 02:42:14;;;;;;;;;;;;;;;13.57;83.87;99730.53;5013409;28;815;-67
2021/09/17 02:44:40;;;;;;;;;;;;;;;13.58;84.08;99729.31;5013529;28;819;-68
2021/09/17 02:47:07;;;;;;;;;;;;;;;13.57;83.87;99726.97;5013237;28;843;-68
2021/09/17 02:49:34;;;;;;;;;;;;;;;13.56;84.09;99728.97;5013275;28;1946;-68
2021/09/17 02:52:01;;;;;;;;;;;;;;;13.57;83.93;99732.50;4995605;28;1383;-68
2021/09/17 02:54:28;;;;;;;;;;;;;;;13.54;84.06;99716.72;5013090;28;890;-68
2021/09/17 02:56:54;;;;;;;;;;;;;;;13.48;84.17;99716.41;5013116;28;909;-68
2021/09/17 02:59:21;;;;;;;;;;;;;;;13.38;84.23;99718.19;5013234;28;811;-68
2021/09/17 03:01:48;;;;;;;;;;;;;;;13.30;84.32;99710.41;5013079;28;807;-68
2021/09/17 03:04:14;;;;;;;;;;;;;;;13.24;84.91;99721.94;5013047;28;819;-68
2021/09/17 03:06:41;;;;;;;;;;;;;;;13.25;84.69;99717.19;5012978;28;874;-68
2021/09/17 03:09:08;;;;;;;;;;;;;;;13.26;84.80;99722.31;5012883;28;1014;-68
2021/09/17 03:11:34;;;;;;;;;;;;;;;13.22;84.72;99715.25;5012866;28;1981;-68
2021/09/17 03:14:01;;;;;;;;;;;;;;;13.18;84.62;99715.31;5012793;28;808;-68
2021/09/17 03:16:27;;;;;;;;;;;;;;;13.19;85.03;99713.34;5012839;28;928;-68
2021/09/17 03:18:54;;;;;;;;;;;;;;;13.21;84.93;99710.94;5012674;28;1356;-68
2021/09/17 03:21:20;;;;;;;;;;;;;;;13.22;85.02;99710.47;5012748;28;831;-68
2021/09/17 03:23:47;;;;;;;;;;;;;;;13.20;85.00;99709.34;5012574;28;847;-68
2021/09/17 03:26:14;;;;;;;;;;;;;;;13.21;85.29;99710.94;5012616;28;807;-68
2021/09/17 03:28:41;;;;;;;;;;;;;;;13.28;85.91;99708.81;5012517;28;884;-68
2021/09/17 03:31:08;;;;;;;;;;;;;;;13.35;85.25;99710.69;5012755;28;1922;-68
2021/09/17 03:33:35;;;;;;;;;;;;;;;13.30;85.34;99713.97;5012593;28;910;-68
2021/09/17 03:36:01;;;;;;;;;;;;;;;13.28;85.45;99714.38;5012470;28;885;-68
2021/09/17 03:38:27;;;;;;;;;;;;;;;13.37;85.43;99705.50;5012635;28;890;-68
2021/09/17 03:40:54;;;;;;;;;;;;;;;13.38;85.31;99715.41;5012536;28;880;-68
2021/09/17 03:43:21;;;;;;;;;;;;;;;13.40;85.00;99717.75;5012893;28;873;-68
2021/09/17 03:45:48;;;;;;;;;;;;;;;13.43;85.17;99714.13;5012548;28;886;-68
2021/09/17 03:48:15;;;;;;;;;;;;;;;13.50;85.05;99721.53;4994672;28;1267;-68
2021/09/17 03:50:42;;;;;;;;;;;;;;;13.55;85.19;99713.53;5012669;28;1950;-68
2021/09/17 03:53:09;;;;;;;;;;;;;;;13.62;84.83;99710.59;5012427;28;886;-68
2021/09/17 03:55:36;;;;;;;;;;;;;;;13.66;84.67;99714.09;5012688;28;815;-68
2021/09/17 03:58:03;;;;;;;;;;;;;;;13.68;84.69;99710.91;5012321;28;878;-68
2021/09/17 04:00:29;;;;;;;;;;;;;;;13.67;84.48;99712.88;5012452;28;938;-68
2021/09/17 04:02:55;;;;;;;;;;;;;;;13.66;84.41;99711.31;5012052;28;919;-67
2021/09/17 04:05:22;;;;;;;;;;;;;;;13.65;84.40;99700.63;5012043;28;890;-68
2021/09/17 04:07:49;;;;;;;;;;;;;;;13.67;84.37;99706.53;5011983;28;955;-67
2021/09/17 04:10:16;;;;;;;;;;;;;;;13.69;84.31;99715.22;5011918;28;1890;-68
2021/09/17 04:12:43;;;;;;;;;;;;;;;13.71;84.27;99707.25;5011948;28;834;-67
2021/09/17 04:15:11;;;;;;;;;;;;;;;13.74;84.12;99714.75;5011899;28;870;-68
2021/09/17 04:17:37;;;;;;;;;;;;;;;13.76;83.85;99711.53;5011835;28;1262;-68
2021/09/17 04:20:05;;;;;;;;;;;;;;;13.78;83.88;99707.09;5011827;28;815;-68
2021/09/17 04:22:32;;;;;;;;;;;;;;;13.82;83.82;99707.03;5011784;28;894;-67
2021/09/17 04:24:59;;;;;;;;;;;;;;;13.87;83.74;99703.78;4994487;28;1385;-68
2021/09/17 04:27:26;;;;;;;;;;;;;;;13.97;83.69;99702.00;5011824;28;910;-68
2021/09/17 04:29:52;;;;;;;;;;;;;;;14.08;83.45;99702.53;5012295;28;1923;-68
2021/09/17 04:32:20;;;;;;;;;;;;;;;14.20;83.25;99699.13;5011704;28;834;-68
2021/09/17 04:34:46;;;;;;;;;;;;;;;14.34;82.99;99700.00;5011711;28;905;-68
2021/09/17 04:37:13;;;;;;;;;;;;;;;14.46;82.58;99697.34;5011709;28;796;-68
2021/09/17 04:39:40;;;;;;;;;;;;;;;14.57;82.15;99696.34;5011614;28;910;-68
2021/09/17 04:42:05;;;;;;;;;;;;;;;14.65;82.07;99692.19;5011639;28;827;-68
2021/09/17 04:44:32;;;;;;;;;;;;;;;14.74;81.79;99688.81;5011822;28;819;-68
2021/09/17 04:46:58;;;;;;;;;;;;;;;14.93;81.59;99689.97;5011616;28;859;-68
2021/09/17 04:49:25;;;;;;;;;;;;;;;15.10;81.06;99685.94;5011545;28;811;-68
2021/09/17 04:51:51;;;;;;;;;;;;;;;15.27;80.97;99679.13;5011396;28;1878;-68
2021/09/17 04:54:17;;;;;;;;;;;;;;;15.51;80.56;99676.13;5011618;28;891;-67
2021/09/17 04:56:44;;;;;;;;;;;;;;;15.77;80.14;99682.63;5011436;28;898;-68
2021/09/17 04:59:11;;;;;;;;;;;;;;;16.16;79.42;99674.34;5012791;28;870;-68
2021/09/17 05:01:38;;;;;;;;;;;;;;;16.45;78.45;99671.44;5015263;28;878;-68
2021/09/17 05:04:05;;;;;;;;;;;;;;;16.57;78.03;99678.28;5015313;28;838;-68
2021/09/17 05:06:31;;;;;;;;;;;;;;;16.67;77.94;99671.56;5015136;28;965;-68
2021/09/17 05:08:58;;;;;;;;;;;;;;;16.77;77.64;99678.81;5015165;28;858;-68
2021/09/17 05:16:34;;;;;;;;;;;;;;;17.71;75.75;99682.81;5678833;22;1815;-58
2021/09/17 05:19:02;;;;;;;;;;;;;;;18.11;75.24;99678.59;5034785;28;853;-58
2021/09/17 05:21:29;;;;;;;;;;;;;;;18.47;74.08;99686.41;5034866;28;862;-58
2021/09/17 05:23:55;;;;;;;;;;;;;;;18.72;73.28;99687.44;5034746;28;905;-58
2021/09/17 05:26:22;;;;;;;;;;;;;;;19.00;71.91;99690.34;5034698;28;814;-58
2021/09/17 05:28:49;;;;;;;;;;;;;;;19.33;70.56;99693.34;5034643;28;853;-58
2021/09/17 05:31:16;;;;;;;;;;;;;;;19.76;69.34;99694.34;5034327;28;1981;-58
2021/09/17 05:33:43;;;;;;;;;;;;;;;20.16;67.19;99688.50;5034811;28;826;-58
2021/09/17 05:36:09;;;;;;;;;;;;;;;20.54;65.52;99689.91;5034479;28;877;-58
2021/09/17 05:38:36;;;;;;;;;;;;;;;20.72;64.33;99691.91;5016787;28;855;-58
2021/09/17 05:41:03;;;;;;;;;;;;;;;20.75;63.11;99693.75;5034499;28;858;-56
2021/09/17 05:43:30;;;;;;;;;;;;;;;20.78;62.70;99698.44;5034552;28;902;-56
2021/09/17 05:45:56;;;;;;;;;;;;;;;20.97;62.02;99699.13;5034185;28;830;-56
2021/09/17 05:48:23;;;;;;;;;;;;;;;21.53;60.50;99687.50;5034219;28;858;-56
2021/09/17 05:50:51;;;;;;;;;;;;;;;21.95;59.48;99690.09;5034081;28;1964;-56
2021/09/17 05:53:17;;;;;;;;;;;;;;;22.01;58.47;99687.38;5034036;28;846;-56
2021/09/17 05:55:44;;;;;;;;;;;;;;;22.08;57.83;99686.22;5034109;28;897;-56
2021/09/17 05:58:10;;;;;;;;;;;;;;;22.34;56.42;99692.88;5034066;28;814;-56
2021/09/17 06:00:37;;;;;;;;;;;;;;;22.62;55.94;99696.13;5016266;28;1356;-57
2021/09/17 06:03:04;;;;;;;;;;;;;;;22.73;55.10;99686.28;5033810;28;949;-56
2021/09/17 06:05:30;;;;;;;;;;;;;;;22.70;55.53;99687.25;5034055;28;819;-56
2021/09/17 06:07:57;;;;;;;;;;;;;;;22.78;54.67;99686.34;5033831;28;889;-56
2021/09/17 06:10:24;;;;;;;;;;;;;;;22.72;54.80;99693.16;5033670;28;1890;-56
2021/09/17 06:12:50;;;;;;;;;;;;;;;22.74;54.60;99687.81;5033818;28;842;-56
2021/09/17 06:15:18;;;;;;;;;;;;;;;22.86;54.39;99686.72;5033668;28;831;-56
2021/09/17 06:17:45;;;;;;;;;;;;;;;23.24;53.98;99682.16;5033534;28;1226;-57
2021/09/17 06:20:13;;;;;;;;;;;;;;;23.59;52.54;99679.22;5033666;28;806;-56
2021/09/17 06:22:41;;;;;;;;;;;;;;;24.14;51.69;99677.50;5033583;28;861;-56
2021/09/17 06:25:08;;;;;;;;;;;;;;;24.80;50.00;99677.75;5033433;28;982;-57
2021/09/17 06:27:35;;;;;;;;;;;;;;;25.52;47.44;99675.78;5033510;28;865;-56
2021/09/17 06:30:03;;;;;;;;;;;;;;;26.11;44.93;99669.25;5033373;28;1922;-56
2021/09/17 06:32:29;;;;;;;;;;;;;;;26.70;44.32;99669.50;5033679;28;802;-56
2021/09/17 06:34:58;;;;;;;;;;;;;;;27.35;41.93;99669.06;5033391;28;889;-57
2021/09/17 06:37:24;;;;;;;;;;;;;;;27.73;40.68;99671.47;5033217;28;809;-56
2021/09/17 06:39:51;;;;;;;;;;;;;;;28.04;39.73;99673.84;5033350;28;917;-57
2021/09/17 06:42:18;;;;;;;;;;;;;;;28.32;39.16;99680.63;5033195;28;901;-57
2021/09/17 06:44:44;;;;;;;;;;;;;;;28.67;38.90;99668.44;5033083;28;881;-57
2021/09/17 06:47:12;;;;;;;;;;;;;;;29.13;37.35;99677.28;5033113;28;861;-57
2021/09/17 06:49:38;;;;;;;;;;;;;;;29.10;37.31;99674.22;5033019;28;1894;-57
2021/09/17 06:52:05;;;;;;;;;;;;;;;28.92;37.90;99675.66;5033015;28;870;-56
2021/09/17 06:54:32;;;;;;;;;;;;;;;28.93;37.44;99673.56;5033055;28;862;-57
2021/09/17 06:56:59;;;;;;;;;;;;;;;29.08;37.29;99682.47;5032908;28;881;-57
2021/09/17 06:59:26;;;;;;;;;;;;;;;29.30;36.84;99677.84;5032872;28;898;-57
2021/09/17 07:01:52;;;;;;;;;;;;;;;29.35;36.85;99676.22;5032825;28;865;-57
2021/09/17 07:04:19;;;;;;;;;;;;;;;29.40;36.69;99681.84;5032829;28;798;-57
2021/09/17 07:06:46;;;;;;;;;;;;;;;29.54;36.25;99681.94;5032774;28;854;-57
2021/09/17 07:09:13;;;;;;;;;;;;;;;29.56;35.94;99679.31;5032678;28;822;-56
2021/09/17 07:11:40;;;;;;;;;;;;;;;29.46;36.35;99684.63;5032642;28;1878;-57
2021/09/17 07:14:07;;;;;;;;;;;;;;;29.55;36.06;99684.22;5032516;28;810;-57
2021/09/17 07:16:35;;;;;;;;;;;;;;;29.40;36.21;99669.69;5032461;28;1212;-57
2021/09/17 07:19:02;;;;;;;;;;;;;;;29.27;36.33;99678.91;5032467;28;903;-57
2021/09/17 07:21:28;;;;;;;;;;;;;;;29.11;36.69;99675.72;5031999;28;830;-56
2021/09/17 07:23:55;;;;;;;;;;;;;;;29.17;36.62;99674.88;5032338;28;1088;-57
2021/09/17 07:26:21;;;;;;;;;;;;;;;29.19;36.63;99669.44;5032402;28;842;-56
2021/09/17 07:28:49;;;;;;;;;;;;;;;29.29;36.35;99670.59;5032354;28;857;-57
2021/09/17 07:31:16;;;;;;;;;;;;;;;29.48;36.20;99660.00;5032181;28;1985;-56
2021/09/17 07:33:42;;;;;;;;;;;;;;;29.66;35.74;99663.38;5032208;28;886;-57
2021/09/17 07:36:09;;;;;;;;;;;;;;;29.45;36.19;99663.94;5032155;28;842;-57
2021/09/17 07:38:35;;;;;;;;;;;;;;;29.29;36.51;99662.06;5032296;28;838;-56
2021/09/17 07:41:03;;;;;;;;;;;;;;;29.41;36.51;99651.31;5032131;28;865;-56
2021/09/17 07:43:29;;;;;;;;;;;;;;;29.91;35.67;99649.84;5032292;28;818;-57
2021/09/17 07:45:56;;;;;;;;;;;;;;;30.40;34.79;99651.66;5032396;28;885;-57
2021/09/17 07:48:21;;;;;;;;;;;;;;;30.79;33.94;99648.09;5031995;28;952;-57
2021/09/17 07:50:48;;;;;;;;;;;;;;;31.06;33.37;99646.00;5031844;28;1886;-57
2021/09/17 07:53:15;;;;;;;;;;;;;;;30.93;34.25;99648.88;5031932;28;846;-57
2021/09/17 07:55:42;;;;;;;;;;;;;;;30.70;33.91;99639.94;5031815;28;918;-57
2021/09/17 07:58:09;;;;;;;;;;;;;;;30.68;34.14;99636.88;5031774;28;946;-57
2021/09/17 08:00:36;;;;;;;;;;;;;;;30.78;33.72;99634.38;5031898;28;822;-57
2021/09/17 08:03:04;;;;;;;;;;;;;;;30.43;34.35;99636.31;5031792;28;906;-56
2021/09/17 08:05:31;;;;;;;;;;;;;;;30.38;34.34;99637.19;5031714;28;918;-57
2021/09/17 08:07:58;;;;;;;;;;;;;;;30.38;34.69;99634.31;5031710;28;866;-57
2021/09/17 08:10:24;;;;;;;;;;;;;;;30.32;34.71;99632.34;5031575;28;1920;-57
2021/09/17 08:12:51;;;;;;;;;;;;;;;30.24;34.91;99633.50;5031513;28;806;-57
2021/09/17 08:15:18;;;;;;;;;;;;;;;29.86;35.07;99628.66;5031708;28;795;-57
2021/09/17 08:17:45;;;;;;;;;;;;;;;29.84;35.14;99617.06;5031513;28;1216;-57
2021/09/17 08:20:10;;;;;;;;;;;;;;;29.75;35.61;99623.16;5031577;28;803;-57
2021/09/17 08:22:38;;;;;;;;;;;;;;;29.73;35.61;99625.78;5031720;28;925;-56
2021/09/17 08:25:05;;;;;;;;;;;;;;;29.74;35.65;99623.69;5031494;28;918;-56
2021/09/17 08:27:32;;;;;;;;;;;;;;;29.87;35.83;99621.69;5031495;28;926;-56
2021/09/17 08:29:59;;;;;;;;;;;;;;;30.24;35.34;99625.72;5031409;28;1969;-57
2021/09/17 08:32:26;;;;;;;;;;;;;;;30.18;34.83;99615.75;5031488;28;963;-56
2021/09/17 08:34:53;;;;;;;;;;;;;;;30.39;34.83;99613.84;5033975;28;966;-56
2021/09/17 08:37:20;;;;;;;;;;;;;;;30.59;33.98;99609.56;5035627;28;866;-57
2021/09/17 08:39:47;;;;;;;;;;;;;;;30.44;34.66;99618.66;5035393;28;922;-56
2021/09/17 08:42:13;;;;;;;;;;;;;;;30.32;34.62;99614.47;5035497;28;850;-57
2021/09/17 08:44:40;;;;;;;;;;;;;;;30.09;35.11;99611.22;5035336;28;870;-57
2021/09/17 08:47:07;;;;;;;;;;;;;;;30.12;35.09;99612.97;5035400;28;823;-56
2021/09/17 08:49:34;;;;;;;;;;;;;;;30.55;34.91;99602.66;5035052;28;819;-56
2021/09/17 08:52:01;;;;;;;;;;;;;;;30.77;34.63;99607.16;5018634;28;1949;-57
2021/09/17 08:54:29;;;;;;;;;;;;;;;30.62;34.38;99602.78;5015198;28;902;-57
2021/09/17 08:56:56;;;;;;;;;;;;;;;30.68;34.81;99597.75;5015516;28;834;-57
2021/09/17 08:59:23;;;;;;;;;;;;;;;30.65;34.05;99587.41;5015138;28;874;-57
2021/09/17 09:01:49;;;;;;;;;;;;;;;30.76;34.28;99583.56;5015298;28;874;-56
2021/09/17 09:04:16;;;;;;;;;;;;;;;30.93;33.78;99580.41;5015645;28;842;-57
2021/09/17 09:06:46;;;;;;;;;;;;;;;30.37;34.81;99572.94;5015172;28;902;-57
2021/09/17 09:09:17;;;;;;;;;;;;;;;29.84;35.24;99565.78;5015105;28;916;-56
2021/09/17 09:11:53;;;;;;;;;;;;;;;30.09;35.26;99568.47;5015208;28;1910;-57
2021/09/17 09:14:19;;;;;;;;;;;;;;;30.08;34.93;99556.28;5015182;28;790;-56
2021/09/17 09:16:49;;;;;;;;;;;;;;;30.28;34.85;99557.00;5015082;28;1514;-57
2021/09/17 09:19:17;;;;;;;;;;;;;;;30.61;33.97;99557.69;5015354;28;803;-55
2021/09/17 09:21:44;;;;;;;;;;;;;;;30.48;34.30;99544.22;5014981;28;864;-56
2021/09/17 09:24:16;;;;;;;;;;;;;;;30.73;33.46;99539.81;5014873;28;892;-56
2021/09/17 09:26:46;;;;;;;;;;;;;;;30.56;33.01;99541.47;5014929;28;823;-56
2021/09/17 09:29:29;;;;;;;;;;;;;;;30.35;34.05;99535.66;5014744;28;1036;-56
2021/09/17 09:31:56;;;;;;;;;;;;;;;30.25;34.54;99538.13;5014973;28;1983;-56
2021/09/17 09:34:43;;;;;;;;;;;;;;;30.42;33.85;99535.75;5015107;28;851;-56
2021/09/17 09:37:11;;;;;;;;;;;;;;;30.52;33.36;99536.84;5014638;28;2052;-56
2021/09/17 09:39:54;;;;;;;;;;;;;;;30.47;34.17;99536.94;5014706;28;823;-56
2021/09/17 09:42:41;;;;;;;;;;;;;;;30.41;33.44;99534.22;5014424;28;880;-56
2021/09/17 09:45:10;;;;;;;;;;;;;;;30.32;34.00;99526.88;5014119;28;1986;-56
2021/09/17 09:47:38;;;;;;;;;;;;;;;30.47;33.82;99514.94;5014455;28;934;-56
2021/09/17 09:50:08;;;;;;;;;;;;;;;30.76;32.92;99509.41;5014295;28;1940;-56
2021/09/17 09:52:35;;;;;;;;;;;;;;;30.88;31.94;99504.28;5014344;28;1142;-56
2021/09/17 09:55:02;;;;;;;;;;;;;;;30.62;32.76;99505.81;5014249;28;1001;-56
2021/09/17 09:57:30;;;;;;;;;;;;;;;30.44;32.67;99495.31;5014445;28;834;-56
2021/09/17 09:59:59;;;;;;;;;;;;;;;30.50;32.58;99490.25;5014300;28;969;-56
2021/09/17 10:02:26;;;;;;;;;;;;;;;30.89;32.95;99488.66;4996636;28;2632;-56
2021/09/17 10:04:53;;;;;;;;;;;;;;;31.11;32.36;99488.19;5014110;28;976;-56
2021/09/17 10:07:22;;;;;;;;;;;;;;;31.11;32.36;99484.53;5014475;28;917;-56
2021/09/17 10:09:48;;;;;;;;;;;;;;;31.29;31.09;99489.31;5013934;28;1882;-56
2021/09/17 10:12:15;;;;;;;;;;;;;;;31.54;31.83;99489.00;5013921;28;811;-56
2021/09/17 10:14:42;;;;;;;;;;;;;;;32.14;30.96;99482.25;5014012;28;807;-56
2021/09/17 10:17:10;;;;;;;;;;;;;;;32.07;29.42;99476.47;5013977;28;1553;-56
2021/09/17 10:19:37;;;;;;;;;;;;;;;31.85;30.97;99474.97;5013940;28;807;-57
2021/09/17 10:22:05;;;;;;;;;;;;;;;31.73;30.44;99475.28;5013731;28;874;-57
2021/09/17 10:24:31;;;;;;;;;;;;;;;31.53;30.90;99478.91;5013857;28;881;-56
2021/09/17 10:27:00;;;;;;;;;;;;;;;31.52;30.44;99468.81;5013797;28;874;-56
2021/09/17 10:29:33;;;;;;;;;;;;;;;31.60;30.78;99468.84;4996107;28;716;-56
2021/09/17 10:32:01;;;;;;;;;;;;;;;31.72;30.23;99470.09;5013606;28;1918;-56
2021/09/17 10:34:29;;;;;;;;;;;;;;;31.64;30.07;99466.41;5013657;28;827;-56
2021/09/17 10:36:54;;;;;;;;;;;;;;;31.62;30.21;99446.22;5013511;28;942;-56
2021/09/17 10:39:21;;;;;;;;;;;;;;;31.78;31.09;99441.41;5013481;28;791;-56
2021/09/17 10:42:06;;;;;;;;;;;;;;;32.01;30.13;99444.47;5013402;28;847;-56
2021/09/17 10:44:53;;;;;;;;;;;;;;;32.20;30.59;99444.16;5013744;28;834;-57
2021/09/17 10:47:46;;;;;;;;;;;;;;;32.55;29.57;99437.69;5013470;28;1862;-56
2021/09/17 10:50:14;;;;;;;;;;;;;;;32.94;28.61;99434.97;4989760;28;1886;-57
2021/09/17 10:52:42;;;;;;;;;;;;;;;32.75;29.15;99433.22;5013306;28;1052;-56
2021/09/17 10:55:28;;;;;;;;;;;;;;;32.75;28.59;99426.69;5013343;28;846;-57
2021/09/17 10:58:13;;;;;;;;;;;;;;;32.62;29.12;99421.91;5012123;28;1536;-56
2021/09/17 11:00:52;;;;;;;;;;;;;;;32.69;29.50;99415.44;5013505;28;794;-57
2021/09/17 11:03:39;;;;;;;;;;;;;;;33.04;28.27;99420.88;5013178;28;873;-57
2021/09/17 11:06:21;;;;;;;;;;;;;;;32.84;27.83;99413.94;5013030;28;814;-56
2021/09/17 11:08:54;;;;;;;;;;;;;;;32.74;27.94;99419.47;5012958;28;953;-57
2021/09/17 11:11:27;;;;;;;;;;;;;;;32.95;27.98;99405.03;5012688;28;1890;-56
2021/09/17 11:13:54;;;;;;;;;;;;;;;33.29;27.31;99401.84;5012956;28;862;-56
2021/09/17 11:16:22;;;;;;;;;;;;;;;33.36;26.77;99400.31;5012702;28;1207;-57
2021/09/17 11:18:59;;;;;;;;;;;;;;;33.22;27.35;99394.00;5012857;28;850;-56
2021/09/17 11:21:28;;;;;;;;;;;;;;;33.14;27.70;99384.66;5012657;28;863;-56
2021/09/17 11:23:55;;;;;;;;;;;;;;;33.38;27.46;99382.56;5012575;28;1024;-56
2021/09/17 11:26:28;;;;;;;;;;;;;;;33.39;27.30;99379.09;5012776;28;830;-56
2021/09/17 11:29:10;;;;;;;;;;;;;;;33.72;27.40;99368.63;5012526;28;1050;-56
2021/09/17 11:31:42;;;;;;;;;;;;;;;33.85;26.39;99373.38;5012548;28;1914;-54
2021/09/17 11:34:10;;;;;;;;;;;;;;;33.61;26.92;99369.03;5012604;28;835;-56
2021/09/17 11:36:37;;;;;;;;;;;;;;;33.19;27.04;99368.63;5012387;28;940;-56
2021/09/17 11:39:11;;;;;;;;;;;;;;;32.68;27.23;99368.13;5012422;28;855;-55
2021/09/17 11:41:38;;;;;;;;;;;;;;;32.48;27.14;99366.91;5012315;28;748;-54
2021/09/17 11:44:05;;;;;;;;;;;;;;;32.23;27.71;99366.63;5012497;28;952;-55
2021/09/17 11:46:31;;;;;;;;;;;;;;;32.04;28.58;99355.47;5012359;28;945;-55
2021/09/17 11:48:59;;;;;;;;;;;;;;;31.89;28.51;99356.13;5012538;28;830;-56
2021/09/17 11:51:26;;;;;;;;;;;;;;;32.00;28.40;99349.38;5012186;28;2042;-56
2021/09/17 11:53:52;;;;;;;;;;;;;;;31.92;28.56;99346.44;5012262;28;920;-56
2021/09/17 11:56:19;;;;;;;;;;;;;;;31.85;29.06;99352.88;5012637;28;830;-56
2021/09/17 11:58:46;;;;;;;;;;;;;;;32.08;29.09;99347.31;5012331;28;823;-56
2021/09/17 12:01:16;;;;;;;;;;;;;;;32.49;28.29;99347.66;5012217;28;959;-56
2021/09/17 12:03:43;;;;;;;;;;;;;;;32.66;28.21;99345.06;5012132;28;815;-56
2021/09/17 12:06:11;;;;;;;;;;;;;;;32.50;27.77;99346.34;5012254;28;1137;-56
2021/09/17 12:08:38;;;;;;;;;;;;;;;32.40;28.00;99342.50;5011779;28;927;-56
2021/09/17 12:11:05;;;;;;;;;;;;;;;32.53;27.98;99340.25;5011788;28;1890;-56
2021/09/17 12:13:31;;;;;;;;;;;;;;;32.84;27.89;99336.69;5012012;28;866;-56
2021/09/17 12:15:58;;;;;;;;;;;;;;;33.00;27.72;99341.09;5011819;28;1356;-56
2021/09/17 12:18:29;;;;;;;;;;;;;;;33.22;27.41;99336.72;5011741;28;1506;-56
2021/09/17 12:20:57;;;;;;;;;;;;;;;33.95;26.56;99334.16;4994288;28;735;-56
2021/09/17 12:23:40;;;;;;;;;;;;;;;33.52;26.84;99327.38;5012094;28;784;-56
2021/09/17 12:26:23;;;;;;;;;;;;;;;32.89;27.63;99330.78;5011694;28;935;-56
2021/09/17 12:28:51;;;;;;;;;;;;;;;32.43;28.23;99335.63;5012473;28;862;-56
2021/09/17 12:31:35;;;;;;;;;;;;;;;32.35;28.21;99330.66;5011839;28;1977;-56
2021/09/17 12:34:13;;;;;;;;;;;;;;;32.23;28.82;99335.19;5011639;28;970;-57
2021/09/17 12:36:41;;;;;;;;;;;;;;;32.41;28.75;99330.50;5011592;28;910;-56
2021/09/17 12:39:08;;;;;;;;;;;;;;;32.65;28.12;99317.03;5011598;28;811;-56
2021/09/17 12:41:35;;;;;;;;;;;;;;;32.51;28.44;99307.81;5011737;28;913;-56
2021/09/17 12:44:08;;;;;;;;;;;;;;;32.27;28.83;99315.56;5011928;28;827;-56
2021/09/17 12:46:35;;;;;;;;;;;;;;;31.98;29.34;99311.22;5011555;28;836;-56
2021/09/17 12:49:02;;;;;;;;;;;;;;;31.67;29.22;99311.06;5011787;28;886;-56
2021/09/17 12:51:29;;;;;;;;;;;;;;;31.46;29.63;99311.13;5011409;28;1886;-56
2021/09/17 12:53:58;;;;;;;;;;;;;;;31.26;30.05;99306.94;5011620;28;843;-56
2021/09/17 12:56:24;;;;;;;;;;;;;;;31.32;29.97;99307.56;5011419;28;1058;-56
2021/09/17 12:59:11;;;;;;;;;;;;;;;31.56;29.74;99302.81;5011557;28;1024;-56
2021/09/17 13:01:38;;;;;;;;;;;;;;;31.60;29.48;99298.28;5011396;28;891;-56
2021/09/17 13:04:05;;;;;;;;;;;;;;;31.61;29.38;99299.81;4993900;28;903;-56
2021/09/17 13:06:32;;;;;;;;;;;;;;;31.79;28.73;99297.97;4993794;28;1230;-57
2021/09/17 13:08:58;;;;;;;;;;;;;;;32.27;28.75;99289.06;5011370;28;900;-57
2021/09/17 13:11:25;;;;;;;;;;;;;;;33.07;29.84;99288.84;5011316;28;1906;-57
2021/09/17 13:13:52;;;;;;;;;;;;;;;33.79;29.04;99288.94;5011468;28;834;-57